Time;durP1;ratioP1;P1;durP2;ratioP2;P2;SDS_P1;SDS_P2;PMS_P1;PMS_P2;Temp;Humidity;BMP_temperature;BMP_pressure;BME280_temperature;BME280_humidity;BME280_pressure;Samples;Min_cycle;Max_cycle;Signal;HPM_P1;HPM_P2
2021/01/03 00:03:53;;;;;;;57.72;22.95;;;-0.30;99.90;;;;;;8244456;28;20053;-71
2021/01/03 00:07:54;;;;;;;54.20;21.52;;;-0.30;99.90;;;;;;8261641;28;20022;-71
2021/01/03 00:11:55;;;;;;;61.42;23.40;;;-0.40;99.90;;;;;;8265324;28;20047;-71
2021/01/03 00:15:56;;;;;;;68.68;26.83;;;-0.40;99.90;;;;;;8324626;28;20122;-71
2021/01/03 00:19:56;;;;;;;60.50;22.00;;;-0.30;99.90;;;;;;8308784;28;20076;-71
2021/01/03 00:23:57;;;;;;;57.30;22.65;;;-0.20;99.90;;;;;;8326682;28;20026;-70
2021/01/03 00:27:57;;;;;;;57.63;22.50;;;-0.10;99.90;;;;;;8325748;28;20554;-71
2021/01/03 00:32:00;;;;;;;58.38;22.35;;;0.20;99.90;;;;;;8326206;28;20029;-71
2021/01/03 00:36:01;;;;;;;57.45;22.35;;;0.10;99.90;;;;;;8324813;28;20083;-71
2021/01/03 00:40:04;;;;;;;56.63;21.83;;;0.20;99.90;;;;;;8243790;28;20018;-71
2021/01/03 00:44:05;;;;;;;60.17;23.02;;;0.30;99.90;;;;;;8263132;28;20026;-71
2021/01/03 00:48:09;;;;;;;53.45;22.52;;;0.30;99.90;;;;;;8267569;28;20461;-71
2021/01/03 00:52:09;;;;;;;59.63;23.30;;;0.00;99.90;;;;;;8266476;28;20037;-71
2021/01/03 00:56:10;;;;;;;54.40;22.15;;;0.00;99.90;;;;;;8267469;28;20026;-70
2021/01/03 01:00:30;;;;;;;54.70;22.00;;;0.30;99.90;;;;;;8266796;28;20030;-72
2021/01/03 01:04:30;;;;;;;58.15;22.25;;;0.40;99.90;;;;;;8249515;28;20037;-70
2021/01/03 01:08:31;;;;;;;51.65;21.42;;;0.50;99.90;;;;;;8249194;28;20026;-71
2021/01/03 01:12:34;;;;;;;57.17;23.23;;;0.20;99.90;;;;;;8266190;28;20046;-71
2021/01/03 01:16:36;;;;;;;63.33;22.10;;;0.30;99.90;;;;;;8266499;28;20046;-71
2021/01/03 01:20:37;;;;;;;54.70;21.92;;;0.20;99.90;;;;;;8248846;28;20026;-71
2021/01/03 01:24:37;;;;;;;58.50;22.38;;;0.10;99.90;;;;;;8266292;28;20401;-72
2021/01/03 01:28:38;;;;;;;53.33;21.20;;;0.20;99.90;;;;;;8266074;28;20034;-71
2021/01/03 01:32:39;;;;;;;56.28;22.50;;;0.30;99.90;;;;;;8266112;28;20058;-70
2021/01/03 01:36:40;;;;;;;54.65;22.63;;;0.30;99.90;;;;;;8266262;28;20026;-71
2021/01/03 01:40:42;;;;;;;59.03;23.23;;;0.30;99.90;;;;;;8265743;28;20114;-71
2021/01/03 01:44:43;;;;;;;52.58;22.05;;;0.10;99.90;;;;;;8265664;28;20162;-72
2021/01/03 01:48:46;;;;;;;60.33;23.80;;;0.00;99.90;;;;;;8265611;28;20026;-71
2021/01/03 01:52:53;;;;;;;64.28;23.73;;;0.00;99.90;;;;;;8248067;28;20026;-72
2021/01/03 01:57:06;;;;;;;54.28;23.13;;;-0.10;99.90;;;;;;8264496;28;20030;-71
2021/01/03 02:01:10;;;;;;;60.15;24.45;;;0.00;99.90;;;;;;8247653;28;20389;-71
2021/01/03 02:05:18;;;;;;;58.58;22.27;;;0.10;99.90;;;;;;8265049;28;20032;-71
2021/01/03 02:09:30;;;;;;;49.38;22.35;;;0.20;99.90;;;;;;8264869;28;20370;-71
2021/01/03 02:13:35;;;;;;;62.85;23.90;;;0.10;99.90;;;;;;8264887;28;20109;-71
2021/01/03 02:17:35;;;;;;;60.22;23.98;;;-0.10;99.90;;;;;;8264866;28;20560;-71
2021/01/03 02:21:50;;;;;;;57.03;22.23;;;0.00;99.90;;;;;;8264607;28;20026;-71
2021/01/03 02:25:51;;;;;;;55.67;22.80;;;-0.10;99.90;;;;;;8264110;28;20030;-71
2021/01/03 02:29:53;;;;;;;60.03;24.15;;;-0.20;99.90;;;;;;8246517;28;20022;-72
2021/01/03 02:33:56;;;;;;;64.60;25.38;;;-0.30;99.90;;;;;;8264444;28;20030;-71
2021/01/03 02:37:59;;;;;;;58.45;22.15;;;0.20;99.90;;;;;;8246968;28;20066;-71
2021/01/03 02:42:10;;;;;;;63.90;23.73;;;0.00;99.90;;;;;;8263663;28;20031;-71
2021/01/03 02:46:10;;;;;;;59.53;23.13;;;0.30;99.90;;;;;;8263910;28;20674;-71
2021/01/03 02:50:15;;;;;;;67.68;23.83;;;0.20;99.90;;;;;;8263426;28;20080;-71
2021/01/03 02:54:16;;;;;;;56.88;22.42;;;-0.10;99.90;;;;;;8263869;28;20037;-71
2021/01/03 02:58:16;;;;;;;61.20;22.73;;;-0.10;99.90;;;;;;8246325;28;20049;-71
2021/01/03 03:02:18;;;;;;;63.70;22.85;;;-0.10;99.90;;;;;;8263282;28;20034;-71
2021/01/03 03:06:18;;;;;;;65.00;24.35;;;-0.10;99.90;;;;;;8245630;28;20053;-72
2021/01/03 03:10:20;;;;;;;58.28;23.35;;;-0.10;99.90;;;;;;8262787;28;20044;-72
2021/01/03 03:14:20;;;;;;;62.80;23.45;;;0.30;99.90;;;;;;8245904;28;20030;-71
2021/01/03 03:18:21;;;;;;;59.53;23.02;;;0.40;99.90;;;;;;8245985;28;20517;-71
2021/01/03 03:22:21;;;;;;;58.20;23.02;;;0.30;99.90;;;;;;8262799;28;20105;-70
2021/01/03 03:26:22;;;;;;;58.08;23.42;;;0.20;99.90;;;;;;8262933;28;20041;-71
2021/01/03 03:30:24;;;;;;;60.58;23.00;;;0.30;99.90;;;;;;8287108;28;20038;-71
2021/01/03 03:34:25;;;;;;;62.85;21.85;;;0.10;99.90;;;;;;8277767;28;20463;-71
2021/01/03 03:38:26;;;;;;;62.47;23.67;;;0.10;99.90;;;;;;8277561;28;20030;-70
2021/01/03 03:42:26;;;;;;;58.75;22.17;;;0.00;99.90;;;;;;8294798;28;20044;-71
2021/01/03 03:46:27;;;;;;;63.47;25.27;;;0.00;99.90;;;;;;8295045;28;20126;-71
2021/01/03 03:50:27;;;;;;;63.97;22.98;;;-0.10;99.90;;;;;;8276899;28;20114;-71
2021/01/03 03:54:28;;;;;;;65.55;23.95;;;-0.10;99.90;;;;;;8294868;28;20026;-71
2021/01/03 03:58:29;;;;;;;60.00;23.42;;;0.00;99.90;;;;;;8277403;28;20500;-71
2021/01/03 04:02:29;;;;;;;60.53;22.75;;;0.10;99.90;;;;;;8294503;28;20034;-71
2021/01/03 04:06:30;;;;;;;68.45;24.45;;;0.00;99.90;;;;;;8272285;28;20029;-71
2021/01/03 04:10:30;;;;;;;65.53;23.70;;;0.20;99.90;;;;;;8261854;28;20564;-71
2021/01/03 04:14:31;;;;;;;62.25;23.17;;;0.10;99.90;;;;;;8262290;28;20023;-71
2021/01/03 04:18:31;;;;;;;58.67;22.42;;;0.10;99.90;;;;;;8263246;28;20066;-72
2021/01/03 04:22:32;;;;;;;61.70;22.92;;;0.20;99.90;;;;;;8268280;28;20033;-71
2021/01/03 04:26:33;;;;;;;59.58;22.38;;;0.30;99.90;;;;;;8268623;28;20026;-71
2021/01/03 04:30:33;;;;;;;56.17;22.88;;;0.20;99.90;;;;;;8268258;28;20053;-71
2021/01/03 04:34:37;;;;;;;53.90;21.95;;;0.30;99.90;;;;;;8268224;28;20034;-71
2021/01/03 04:38:37;;;;;;;57.30;21.75;;;0.30;99.90;;;;;;8287671;28;20030;-71
2021/01/03 04:42:38;;;;;;;61.90;22.13;;;0.20;99.90;;;;;;8282642;28;20030;-70
2021/01/03 04:46:40;;;;;;;54.58;21.95;;;0.00;99.90;;;;;;8282692;28;20026;-71
2021/01/03 04:50:49;;;;;;;56.80;21.30;;;-0.10;99.90;;;;;;8299835;28;20084;-71
2021/01/03 04:54:57;;;;;;;59.40;21.77;;;0.30;99.90;;;;;;8300260;28;20091;-70
2021/01/03 04:59:23;;;;;;;64.55;22.38;;;0.30;99.90;;;;;;8299938;28;20041;-70
2021/01/03 05:03:45;;;;;;;61.13;22.42;;;0.10;99.90;;;;;;8299887;28;20488;-71
2021/01/03 05:07:57;;;;;;;59.75;23.42;;;0.20;99.90;;;;;;8284826;28;20033;-71
2021/01/03 05:12:24;;;;;;;62.05;22.55;;;0.40;99.90;;;;;;8249591;28;20147;-72
2021/01/03 05:16:24;;;;;;;58.10;21.33;;;0.40;99.90;;;;;;8386782;23;20084;-71
2021/01/03 05:20:25;;;;;;;62.85;22.90;;;0.40;99.90;;;;;;8331253;28;20029;-70
2021/01/03 05:24:30;;;;;;;58.83;22.05;;;0.40;99.90;;;;;;8317485;28;20030;-71
2021/01/03 05:28:34;;;;;;;55.83;21.50;;;0.30;99.90;;;;;;8298315;28;20025;-71
2021/01/03 05:32:36;;;;;;;55.72;22.48;;;0.50;99.90;;;;;;8298077;28;20389;-71
2021/01/03 05:36:44;;;;;;;49.30;20.80;;;0.30;99.90;;;;;;8298017;28;20700;-70
2021/01/03 05:40:44;;;;;;;53.95;20.90;;;0.10;99.90;;;;;;8280279;28;20116;-71
2021/01/03 05:45:11;;;;;;;57.08;20.48;;;0.40;99.90;;;;;;8297521;28;20439;-71
2021/01/03 05:49:24;;;;;;;65.25;22.70;;;0.40;99.90;;;;;;8291990;28;20404;-70
2021/01/03 05:53:29;;;;;;;53.53;20.17;;;0.40;99.90;;;;;;8280375;28;20041;-71
2021/01/03 05:57:34;;;;;;;56.28;21.65;;;0.30;99.90;;;;;;8297189;28;20029;-70
2021/01/03 06:01:35;;;;;;;52.70;20.50;;;0.40;99.90;;;;;;8296861;28;20038;-70
2021/01/03 06:05:43;;;;;;;55.35;21.83;;;0.20;99.90;;;;;;8297131;28;20033;-71
2021/01/03 06:09:45;;;;;;;59.00;22.85;;;0.40;99.90;;;;;;8292602;28;20022;-70
2021/01/03 06:13:53;;;;;;;51.30;20.45;;;0.30;99.90;;;;;;8296562;28;20084;-70
2021/01/03 06:17:58;;;;;;;55.90;21.48;;;0.30;99.90;;;;;;8296615;28;20022;-71
2021/01/03 06:22:05;;;;;;;54.75;21.40;;;0.20;99.90;;;;;;8296482;28;20037;-70
2021/01/03 06:26:23;;;;;;;57.28;20.60;;;0.40;99.90;;;;;;8279259;28;20037;-71
2021/01/03 06:30:24;;;;;;;53.83;21.10;;;0.40;99.90;;;;;;8296845;28;20022;-71
2021/01/03 06:34:35;;;;;;;52.55;21.50;;;0.30;99.90;;;;;;8296603;28;20034;-71
2021/01/03 06:38:39;;;;;;;57.45;21.73;;;0.10;99.90;;;;;;8295967;28;20109;-70
2021/01/03 06:42:48;;;;;;;57.80;22.42;;;0.20;99.90;;;;;;8294270;28;20378;-70
2021/01/03 06:47:22;;;;;;;59.27;22.50;;;0.30;99.90;;;;;;8295748;28;20018;-71
2021/01/03 06:51:57;;;;;;;59.20;23.90;;;0.30;99.90;;;;;;8295500;28;20026;-70
2021/01/03 06:56:42;;;;;;;65.05;24.27;;;0.30;99.90;;;;;;8270795;28;20026;-71
2021/01/03 07:00:46;;;;;;;60.60;23.75;;;0.20;99.90;;;;;;8295380;28;20076;-71
2021/01/03 07:04:47;;;;;;;60.80;23.83;;;0.30;99.90;;;;;;8277655;28;20180;-70
2021/01/03 07:08:52;;;;;;;57.55;21.92;;;0.30;99.90;;;;;;8295190;28;20480;-71
2021/01/03 07:12:53;;;;;;;62.97;22.92;;;0.40;99.90;;;;;;8295061;28;20083;-71
2021/01/03 07:17:02;;;;;;;58.22;21.50;;;0.40;99.90;;;;;;8292481;28;20038;-71
2021/01/03 07:21:03;;;;;;;60.35;23.77;;;0.40;99.90;;;;;;8293928;28;20024;-71
2021/01/03 07:25:14;;;;;;;55.97;23.05;;;0.20;99.90;;;;;;8294766;28;20026;-71
2021/01/03 07:29:17;;;;;;;53.75;22.02;;;0.40;99.90;;;;;;8276730;28;20034;-71
2021/01/03 07:33:40;;;;;;;56.65;22.58;;;0.40;99.90;;;;;;8277062;28;20030;-71
2021/01/03 07:37:41;;;;;;;59.15;22.25;;;0.30;99.90;;;;;;8294188;28;20042;-70
2021/01/03 07:41:42;;;;;;;53.28;21.38;;;0.40;99.90;;;;;;8293634;28;20032;-71
2021/01/03 07:45:46;;;;;;;52.70;22.42;;;0.40;99.90;;;;;;8276332;28;20389;-71
2021/01/03 07:49:47;;;;;;;55.25;22.27;;;0.30;99.90;;;;;;8290842;28;20080;-70
2021/01/03 07:53:50;;;;;;;60.05;24.90;;;0.20;99.90;;;;;;8292559;28;20164;-71
2021/01/03 07:58:03;;;;;;;51.05;21.42;;;0.20;99.90;;;;;;8276115;28;20026;-70
2021/01/03 08:02:03;;;;;;;56.38;21.70;;;0.50;99.90;;;;;;8290847;28;20030;-72
2021/01/03 08:06:10;;;;;;;58.08;21.98;;;0.60;99.90;;;;;;8292516;28;20041;-72
2021/01/03 08:10:11;;;;;;;55.85;20.95;;;0.40;99.90;;;;;;8292979;28;20072;-72
2021/01/03 08:14:25;;;;;;;54.30;22.13;;;0.40;99.90;;;;;;8275111;28;20056;-72
2021/01/03 08:18:29;;;;;;;50.33;19.17;;;0.60;99.90;;;;;;8274779;28;20721;-72
2021/01/03 08:22:30;;;;;;;49.78;19.52;;;0.60;99.90;;;;;;8292655;28;20032;-71
2021/01/03 08:26:38;;;;;;;53.60;21.92;;;0.50;99.90;;;;;;8292457;28;20010;-70
2021/01/03 08:30:40;;;;;;;49.35;20.25;;;0.60;99.90;;;;;;8291500;28;20030;-71
2021/01/03 08:34:44;;;;;;;60.20;24.13;;;0.50;99.90;;;;;;8292467;28;20493;-72
2021/01/03 08:38:46;;;;;;;50.33;21.02;;;0.80;99.90;;;;;;8293552;28;20029;-72
2021/01/03 08:43:09;;;;;;;54.50;21.70;;;0.60;99.90;;;;;;8293603;28;20510;-72
2021/01/03 08:47:16;;;;;;;54.78;22.38;;;0.80;99.90;;;;;;8292702;28;20041;-71
2021/01/03 08:51:17;;;;;;;72.22;29.10;;;1.00;99.90;;;;;;8292159;28;20105;-71
2021/01/03 08:55:19;;;;;;;53.83;21.75;;;0.90;99.90;;;;;;8293281;28;20546;-72
2021/01/03 08:59:20;;;;;;;52.55;21.20;;;0.80;99.90;;;;;;8274774;28;20463;-72
2021/01/03 09:03:21;;;;;;;65.40;27.73;;;0.70;99.90;;;;;;8265863;28;20115;-70
2021/01/03 09:07:23;;;;;;;47.70;20.13;;;0.70;99.90;;;;;;8282339;28;20114;-71
2021/01/03 09:11:34;;;;;;;41.72;16.65;;;0.80;99.90;;;;;;8283646;28;20044;-72
2021/01/03 09:15:39;;;;;;;40.03;16.95;;;0.90;99.90;;;;;;8284370;28;20069;-70
2021/01/03 09:20:00;;;;;;;38.42;17.73;;;0.90;99.90;;;;;;8286298;28;20101;-71
2021/01/03 09:24:05;;;;;;;39.17;17.92;;;1.10;99.90;;;;;;8287469;28;20044;-72
2021/01/03 09:28:38;;;;;;;39.00;17.17;;;1.10;99.90;;;;;;8287153;28;20046;-71
2021/01/03 09:32:41;;;;;;;38.58;17.95;;;1.30;99.90;;;;;;8283055;28;20038;-71
2021/01/03 09:36:49;;;;;;;40.17;18.10;;;1.20;99.90;;;;;;8287295;28;20040;-70
2021/01/03 09:41:08;;;;;;;43.08;19.08;;;1.20;99.90;;;;;;8284283;28;20404;-72
2021/01/03 09:45:15;;;;;;;39.20;18.73;;;1.30;99.90;;;;;;8286852;28;20030;-71
2021/01/03 09:49:23;;;;;;;38.55;17.85;;;1.30;99.90;;;;;;8302891;28;20033;-71
2021/01/03 09:53:32;;;;;;;38.17;18.63;;;1.50;99.90;;;;;;8288741;28;20625;-70
2021/01/03 09:57:43;;;;;;;37.20;17.63;;;1.50;99.90;;;;;;8291872;28;20029;-71
2021/01/03 10:01:46;;;;;;;37.17;18.30;;;1.60;99.90;;;;;;8273220;28;20108;-71
2021/01/03 10:05:47;;;;;;;38.78;17.35;;;1.80;99.90;;;;;;8292218;28;20034;-72
2021/01/03 10:10:02;;;;;;;95.53;41.83;;;1.80;99.90;;;;;;8295477;28;20021;-72
2021/01/03 10:14:14;;;;;;;42.15;18.73;;;1.80;99.90;;;;;;8291879;28;20038;-71
2021/01/03 10:18:33;;;;;;;40.13;18.92;;;1.80;99.90;;;;;;8289980;28;20056;-71
2021/01/03 10:22:42;;;;;;;41.83;21.13;;;2.00;99.90;;;;;;8288369;28;20425;-71
2021/01/03 10:26:45;;;;;;;39.45;18.67;;;2.10;99.90;;;;;;8301474;28;20041;-72
2021/01/03 10:30:45;;;;;;;37.00;17.23;;;2.00;99.90;;;;;;8287011;28;20056;-72
2021/01/03 10:34:46;;;;;;;36.55;17.77;;;1.90;99.90;;;;;;8262746;28;20030;-72
2021/01/03 10:38:47;;;;;;;33.83;16.35;;;1.90;99.90;;;;;;8268949;28;20564;-72
2021/01/03 10:42:49;;;;;;;35.38;17.58;;;2.30;99.90;;;;;;8268669;28;20072;-72
2021/01/03 10:46:51;;;;;;;32.42;16.05;;;2.30;99.90;;;;;;8285103;28;20022;-72
2021/01/03 10:50:51;;;;;;;33.33;16.80;;;2.40;99.90;;;;;;8270072;28;20033;-72
2021/01/03 10:54:52;;;;;;;34.40;16.80;;;2.60;99.90;;;;;;8284732;28;20089;-73
2021/01/03 10:58:53;;;;;;;32.35;16.70;;;2.40;99.90;;;;;;8273433;28;20026;-72
2021/01/03 11:02:54;;;;;;;35.20;16.50;;;2.60;99.90;;;;;;8292893;28;20096;-73
2021/01/03 11:06:56;;;;;;;34.08;16.33;;;2.80;99.90;;;;;;8275590;28;20066;-72
2021/01/03 11:10:57;;;;;;;34.92;16.58;;;3.50;99.90;;;;;;8292156;28;20026;-72
2021/01/03 11:14:57;;;;;;;33.72;16.00;;;3.80;99.90;;;;;;8293176;28;20045;-75
2021/01/03 11:18:58;;;;;;;32.75;15.70;;;3.90;99.90;;;;;;8275630;28;20053;-75
2021/01/03 11:22:58;;;;;;;33.92;16.23;;;3.70;99.90;;;;;;8292813;28;20029;-74
2021/01/03 11:27:03;;;;;;;33.63;16.50;;;3.40;99.90;;;;;;8291717;28;20030;-75
2021/01/03 11:31:04;;;;;;;31.70;16.30;;;2.90;99.90;;;;;;8291978;28;20477;-75
2021/01/03 11:35:06;;;;;;;29.33;15.02;;;2.50;99.90;;;;;;8292227;28;20038;-74
2021/01/03 11:39:08;;;;;;;28.88;14.70;;;2.40;99.90;;;;;;8270525;28;20115;-74
2021/01/03 11:43:09;;;;;;;31.67;15.65;;;2.20;99.90;;;;;;8283239;28;20053;-74
2021/01/03 11:47:12;;;;;;;31.17;15.80;;;2.00;99.90;;;;;;8271280;28;20641;-72
2021/01/03 11:51:13;;;;;;;29.33;13.85;;;2.10;99.90;;;;;;8266473;28;20026;-74
2021/01/03 11:55:16;;;;;;;33.17;15.63;;;2.20;99.90;;;;;;8281463;28;20067;-74
2021/01/03 11:59:17;;;;;;;35.72;17.13;;;2.20;99.90;;;;;;8276400;28;20698;-74
2021/01/03 12:03:18;;;;;;;31.83;15.05;;;2.10;99.90;;;;;;8255695;28;20041;-74
2021/01/03 12:07:20;;;;;;;33.33;15.35;;;1.90;99.90;;;;;;8256898;28;20109;-74
2021/01/03 12:11:23;;;;;;;33.90;15.25;;;2.10;99.90;;;;;;8275300;28;20045;-73
2021/01/03 12:15:25;;;;;;;33.42;15.52;;;2.20;99.90;;;;;;8257649;28;20549;-74
2021/01/03 12:19:26;;;;;;;34.53;16.13;;;2.10;99.90;;;;;;8274816;28;20064;-74
2021/01/03 12:23:27;;;;;;;30.27;14.90;;;2.30;99.90;;;;;;8275876;28;20113;-74
2021/01/03 12:27:27;;;;;;;30.83;15.57;;;2.40;99.90;;;;;;8281056;28;20480;-74
2021/01/03 12:31:33;;;;;;;31.67;15.30;;;2.50;99.90;;;;;;8283673;28;20456;-74
2021/01/03 12:35:34;;;;;;;28.55;15.15;;;2.60;99.90;;;;;;8266710;28;20030;-74
2021/01/03 12:39:36;;;;;;;32.20;15.48;;;2.50;99.90;;;;;;8262960;28;20032;-74
2021/01/03 12:43:36;;;;;;;30.60;15.63;;;2.30;99.90;;;;;;8284278;28;20030;-75
2021/01/03 12:47:37;;;;;;;31.25;14.50;;;2.40;99.90;;;;;;8267316;28;20026;-75
2021/01/03 12:51:38;;;;;;;29.58;15.85;;;2.20;99.90;;;;;;8284776;28;20033;-74
2021/01/03 12:55:39;;;;;;;34.20;16.70;;;2.20;99.90;;;;;;8266842;28;20096;-75
2021/01/03 12:59:39;;;;;;;33.22;16.55;;;2.10;99.90;;;;;;8285527;28;20037;-75
2021/01/03 13:03:40;;;;;;;32.55;15.82;;;2.20;99.90;;;;;;8265563;28;20037;-75
2021/01/03 13:07:40;;;;;;;30.65;14.40;;;2.20;99.90;;;;;;8268531;28;20022;-75
2021/01/03 13:11:41;;;;;;;28.92;15.13;;;2.30;99.90;;;;;;8287564;28;20030;-74
2021/01/03 13:15:41;;;;;;;29.13;14.95;;;2.20;99.90;;;;;;8283060;28;20038;-74
2021/01/03 13:19:42;;;;;;;30.45;14.23;;;2.40;99.90;;;;;;8284764;28;20487;-74
2021/01/03 13:23:42;;;;;;;28.20;14.77;;;2.50;99.90;;;;;;8283202;28;20124;-77
2021/01/03 13:27:43;;;;;;;33.50;15.23;;;2.80;99.90;;;;;;8269496;28;20030;-71
2021/01/03 13:31:44;;;;;;;28.38;14.52;;;2.70;99.90;;;;;;8291858;28;20041;-71
2021/01/03 13:35:45;;;;;;;29.65;14.52;;;2.90;99.90;;;;;;8287505;28;20035;-71
2021/01/03 13:39:45;;;;;;;29.55;14.60;;;2.80;99.90;;;;;;8289245;28;20089;-75
2021/01/03 13:43:46;;;;;;;24.85;14.02;;;2.80;99.90;;;;;;8272138;28;20485;-75
2021/01/03 13:47:47;;;;;;;24.25;13.13;;;2.90;99.90;;;;;;8271890;28;20058;-75
2021/01/03 13:51:48;;;;;;;26.90;13.52;;;3.10;99.90;;;;;;8271963;28;20199;-75
2021/01/03 13:55:49;;;;;;;26.25;13.73;;;3.10;99.90;;;;;;8276222;28;20022;-74
2021/01/03 13:59:50;;;;;;;26.33;14.02;;;3.10;99.90;;;;;;8293167;28;20185;-75
2021/01/03 14:03:50;;;;;;;26.45;14.23;;;2.90;99.90;;;;;;8275717;28;20427;-75
2021/01/03 14:07:51;;;;;;;24.23;14.05;;;2.70;99.90;;;;;;8273901;28;20036;-75
2021/01/03 14:11:58;;;;;;;25.77;14.20;;;2.70;99.90;;;;;;8271927;28;20022;-75
2021/01/03 14:15:58;;;;;;;27.85;13.82;;;2.60;99.90;;;;;;8292692;28;20654;-75
2021/01/03 14:19:59;;;;;;;24.38;14.02;;;2.80;99.90;;;;;;8293397;28;20034;-76
2021/01/03 14:24:00;;;;;;;27.08;13.65;;;2.90;99.90;;;;;;8275188;28;20026;-74
2021/01/03 14:28:00;;;;;;;27.60;14.00;;;2.90;99.90;;;;;;8276329;28;20026;-74
2021/01/03 14:32:03;;;;;;;24.40;13.40;;;2.90;99.90;;;;;;8292025;28;20029;-73
2021/01/03 14:36:08;;;;;;;26.27;13.57;;;2.80;99.90;;;;;;8282000;28;20026;-73
2021/01/03 14:40:22;;;;;;;30.00;14.10;;;2.60;99.90;;;;;;8260078;28;20034;-74
2021/01/03 14:44:26;;;;;;;27.63;13.88;;;2.70;99.90;;;;;;8293279;28;20511;-74
2021/01/03 14:48:45;;;;;;;26.45;13.60;;;2.80;99.90;;;;;;8293259;28;20022;-73
2021/01/03 14:53:30;;;;;;;24.63;13.02;;;2.70;99.90;;;;;;8291165;28;20034;-73
2021/01/03 14:57:37;;;;;;;27.77;14.27;;;2.60;99.90;;;;;;8237950;28;20027;-73
2021/01/03 15:01:48;;;;;;;25.75;13.20;;;2.50;99.90;;;;;;8272325;28;20034;-73
2021/01/03 15:06:16;;;;;;;33.92;14.32;;;2.40;99.90;;;;;;8293729;28;20511;-73
2021/01/03 15:10:20;;;;;;;27.95;14.00;;;2.30;99.90;;;;;;8275890;28;20018;-73
2021/01/03 15:14:21;;;;;;;27.38;14.20;;;2.10;99.90;;;;;;8274909;28;20065;-73
2021/01/03 15:18:28;;;;;;;27.55;13.55;;;2.00;99.90;;;;;;8290700;28;20050;-71
2021/01/03 15:22:36;;;;;;;24.85;14.15;;;2.00;99.90;;;;;;8328391;28;20060;-71
2021/01/03 15:26:42;;;;;;;25.08;13.25;;;1.90;99.90;;;;;;8334583;28;20222;-71
2021/01/03 15:30:50;;;;;;;27.35;13.70;;;2.00;99.90;;;;;;8335474;28;20042;-70
2021/01/03 15:34:55;;;;;;;24.98;13.40;;;1.70;99.90;;;;;;8335981;28;20041;-71
2021/01/03 15:38:58;;;;;;;25.80;13.07;;;2.00;99.90;;;;;;8334442;28;20072;-71
2021/01/03 15:43:28;;;;;;;26.02;13.20;;;1.90;99.90;;;;;;8334106;28;20230;-71
2021/01/03 15:47:39;;;;;;;26.33;12.98;;;1.80;99.90;;;;;;8318522;28;20048;-71
2021/01/03 15:51:41;;;;;;;27.23;13.35;;;1.80;99.90;;;;;;8326795;28;20014;-71
2021/01/03 15:55:42;;;;;;;26.35;13.77;;;1.50;99.90;;;;;;8327412;28;20033;-71
2021/01/03 15:59:52;;;;;;;25.85;13.63;;;1.30;99.90;;;;;;8310103;28;20034;-71
2021/01/03 16:03:52;;;;;;;27.15;13.77;;;1.30;99.90;;;;;;8323239;28;20038;-70
2021/01/03 16:07:53;;;;;;;27.67;14.10;;;1.20;99.90;;;;;;8308414;28;20038;-70
2021/01/03 16:11:54;;;;;;;27.17;13.48;;;1.20;99.90;;;;;;8310131;28;20030;-70
2021/01/03 16:15:55;;;;;;;29.50;13.35;;;1.10;99.90;;;;;;8318609;28;20029;-70
2021/01/03 16:19:56;;;;;;;23.75;13.05;;;0.80;99.90;;;;;;8287794;28;20025;-72
2021/01/03 16:24:13;;;;;;;29.83;14.13;;;0.70;99.90;;;;;;8296512;28;20109;-70
2021/01/03 16:28:35;;;;;;;26.20;13.07;;;0.80;99.90;;;;;;8273851;28;20022;-73
2021/01/03 16:32:56;;;;;;;26.23;13.27;;;0.80;99.90;;;;;;8290209;28;20360;-70
2021/01/03 16:37:06;;;;;;;35.45;17.33;;;0.70;99.90;;;;;;8293293;28;20022;-74
2021/01/03 16:41:29;;;;;;;30.88;14.65;;;0.90;99.90;;;;;;8289863;28;20029;-75
2021/01/03 16:46:04;;;;;;;28.67;14.32;;;1.10;99.90;;;;;;8272888;28;20480;-74
2021/01/03 16:50:37;;;;;;;30.13;14.23;;;1.00;99.90;;;;;;8297689;28;20053;-76
2021/01/03 16:54:53;;;;;;;32.17;15.82;;;1.00;99.90;;;;;;8275960;28;20036;-76
2021/01/03 16:59:19;;;;;;;30.02;15.52;;;1.00;99.90;;;;;;8274321;28;20080;-78
2021/01/03 17:03:50;;;;;;;29.42;14.13;;;0.80;99.90;;;;;;8287164;28;20050;-73
2021/01/03 17:08:21;;;;;;;30.00;15.07;;;0.80;99.90;;;;;;8298522;28;20025;-77
2021/01/03 17:12:49;;;;;;;33.55;16.33;;;0.60;99.90;;;;;;8300344;28;20139;-75
2021/01/03 17:17:04;;;;;;;30.63;14.45;;;0.70;99.90;;;;;;8282678;28;20034;-75
2021/01/03 17:21:11;;;;;;;31.83;14.77;;;0.70;99.90;;;;;;8281266;28;20045;-74
2021/01/03 17:25:20;;;;;;;37.72;17.45;;;0.70;99.90;;;;;;8263183;28;20034;-75
2021/01/03 17:29:38;;;;;;;31.47;16.97;;;0.90;99.90;;;;;;8282057;28;20014;-73
2021/01/03 17:34:06;;;;;;;31.10;16.52;;;1.00;99.90;;;;;;8293707;28;20040;-73
2021/01/03 17:38:25;;;;;;;34.72;18.80;;;1.00;99.90;;;;;;8277310;28;20064;-73
2021/01/03 17:42:31;;;;;;;33.58;17.38;;;0.90;99.90;;;;;;8295192;28;20038;-73
2021/01/03 17:46:45;;;;;;;36.05;19.48;;;1.00;99.90;;;;;;8263436;28;20040;-73
2021/01/03 17:50:48;;;;;;;31.63;17.80;;;1.20;99.90;;;;;;8281753;28;20036;-72
2021/01/03 17:54:49;;;;;;;34.88;18.58;;;1.20;99.90;;;;;;8266401;28;20037;-73
2021/01/03 17:58:50;;;;;;;35.13;18.30;;;1.20;99.90;;;;;;8262410;28;20125;-73
2021/01/03 18:02:57;;;;;;;33.10;15.75;;;1.20;99.90;;;;;;8263975;28;20042;-73
2021/01/03 18:07:05;;;;;;;33.20;16.90;;;1.10;99.90;;;;;;8279532;28;20020;-73
2021/01/03 18:11:06;;;;;;;35.88;18.10;;;1.10;99.90;;;;;;8259401;28;20041;-74
2021/01/03 18:15:07;;;;;;;35.42;18.63;;;1.20;99.90;;;;;;8278728;28;20029;-73
2021/01/03 18:19:09;;;;;;;41.80;20.33;;;1.10;99.90;;;;;;8269342;28;20032;-73
2021/01/03 18:23:09;;;;;;;37.50;17.80;;;1.00;99.90;;;;;;8289801;28;20030;-74
2021/01/03 18:27:10;;;;;;;35.35;17.98;;;1.10;99.90;;;;;;8289348;28;20038;-75
2021/01/03 18:31:12;;;;;;;35.25;17.75;;;1.10;99.90;;;;;;8267725;28;20034;-76
2021/01/03 18:35:16;;;;;;;33.03;16.38;;;0.90;99.90;;;;;;8271458;28;20460;-74
2021/01/03 18:39:18;;;;;;;31.17;15.75;;;0.80;99.90;;;;;;8292103;28;20165;-69
2021/01/03 18:43:18;;;;;;;36.58;17.88;;;0.80;99.90;;;;;;8292004;28;20397;-74
2021/01/03 18:47:19;;;;;;;35.67;17.88;;;0.80;99.90;;;;;;8277069;28;20034;-73
2021/01/03 18:51:19;;;;;;;43.55;21.67;;;1.00;99.90;;;;;;8277063;28;20088;-75
2021/01/03 18:55:20;;;;;;;45.78;20.15;;;1.00;99.90;;;;;;8290703;28;20033;-75
2021/01/03 18:59:21;;;;;;;42.00;20.48;;;1.00;99.90;;;;;;8295861;28;20048;-73
2021/01/03 19:03:21;;;;;;;40.42;20.30;;;1.00;99.90;;;;;;8272872;28;20064;-73
2021/01/03 19:07:22;;;;;;;42.08;20.70;;;1.00;99.90;;;;;;8267233;28;20029;-70
2021/01/03 19:11:29;;;;;;;40.80;18.83;;;1.00;99.90;;;;;;8271367;28;20439;-72
2021/01/03 19:15:29;;;;;;;35.33;17.35;;;1.20;99.90;;;;;;8287610;28;20120;-72
2021/01/03 19:19:30;;;;;;;34.00;17.40;;;0.80;99.90;;;;;;8284228;28;20026;-72
2021/01/03 19:23:31;;;;;;;35.88;17.20;;;1.00;99.90;;;;;;8289042;28;20033;-72
2021/01/03 19:27:32;;;;;;;35.95;17.38;;;1.00;99.90;;;;;;8270340;28;20053;-72
2021/01/03 19:31:37;;;;;;;42.17;19.35;;;0.90;99.90;;;;;;8272313;28;20431;-72
2021/01/03 19:35:37;;;;;;;39.65;18.80;;;0.90;99.90;;;;;;8287670;28;20018;-72
2021/01/03 19:39:38;;;;;;;36.85;18.40;;;1.00;99.90;;;;;;8289386;28;20427;-73
2021/01/03 19:43:39;;;;;;;34.25;17.17;;;0.80;99.90;;;;;;8289787;28;20064;-72
2021/01/03 19:47:39;;;;;;;33.97;16.52;;;0.70;99.90;;;;;;8264493;28;20049;-73
2021/01/03 19:51:40;;;;;;;29.17;15.52;;;0.60;99.90;;;;;;8279123;28;20030;-73
2021/01/03 19:55:41;;;;;;;31.45;14.40;;;0.70;99.90;;;;;;8265716;28;20531;-73
2021/01/03 19:59:41;;;;;;;33.13;15.18;;;1.00;99.90;;;;;;8283428;28;20096;-72
2021/01/03 20:03:42;;;;;;;29.42;14.23;;;1.20;99.90;;;;;;8266367;28;20109;-72
2021/01/03 20:07:43;;;;;;;28.58;15.43;;;1.00;99.90;;;;;;8262486;28;20022;-73
2021/01/03 20:11:45;;;;;;;36.75;16.48;;;0.80;99.90;;;;;;8298107;28;20125;-72
2021/01/03 20:15:46;;;;;;;29.77;15.18;;;0.70;99.90;;;;;;8262889;28;20539;-73
2021/01/03 20:19:46;;;;;;;30.58;14.45;;;0.60;99.90;;;;;;8280918;28;20036;-73
2021/01/03 20:23:47;;;;;;;30.55;14.93;;;0.70;99.90;;;;;;8264501;28;20030;-73
2021/01/03 20:27:47;;;;;;;29.35;14.73;;;0.80;99.90;;;;;;8284520;28;20053;-73
2021/01/03 20:32:00;;;;;;;30.85;14.65;;;0.80;99.90;;;;;;8281267;28;20204;-74
2021/01/03 20:36:01;;;;;;;33.92;15.75;;;0.70;99.90;;;;;;8275194;28;20025;-73
2021/01/03 20:40:04;;;;;;;36.22;17.60;;;1.10;99.90;;;;;;8276734;28;20042;-73
2021/01/03 20:44:05;;;;;;;35.35;17.13;;;0.80;99.90;;;;;;8265857;28;20691;-73
2021/01/03 20:48:06;;;;;;;32.70;16.13;;;0.70;99.90;;;;;;8290405;28;20041;-73
2021/01/03 20:52:07;;;;;;;34.47;16.23;;;0.60;99.90;;;;;;8258455;28;20038;-73
2021/01/03 20:56:09;;;;;;;36.40;18.05;;;0.70;99.90;;;;;;8272681;28;20503;-73
2021/01/03 21:00:16;;;;;;;39.28;19.00;;;0.60;99.90;;;;;;8281479;28;20034;-73